sensor_id;sensor_type;location;lat;lon;timestamp;temperature;humidity
25170;DHT22;13129;48.012;10.352;2023-12-04T04:31:23;-13.10;99.90
25170;DHT22;13129;48.012;10.352;2023-12-04T04:33:49;-13.20;99.90
25170;DHT22;13129;48.012;10.352;2023-12-04T04:36:14;-13.30;99.90
25170;DHT22;13129;48.012;10.352;2023-12-04T04:38:40;-13.40;99.90
25170;DHT22;13129;48.012;10.352;2023-12-04T04:41:06;-13.40;99.90
25170;DHT22;13129;48.012;10.352;2023-12-04T04:43:32;-13.40;99.90
25170;DHT22;13129;48.012;10.352;2023-12-04T04:45:57;-13.30;99.90
25170;DHT22;13129;48.012;10.352;2023-12-04T04:48:23;-13.30;99.90
25170;DHT22;13129;48.012;10.352;2023-12-04T04:50:48;-13.30;99.90
25170;DHT22;13129;48.012;10.352;2023-12-04T04:53:14;-13.40;99.90
25170;DHT22;13129;48.012;10.352;2023-12-04T04:55:40;-13.40;99.90
25170;DHT22;13129;48.012;10.352;2023-12-04T04:58:05;-13.40;99.90
25170;DHT22;13129;48.012;10.352;2023-12-04T05:00:31;-13.40;99.90
25170;DHT22;13129;48.012;10.352;2023-12-04T05:02:57;-13.40;99.90
25170;DHT22;13129;48.012;10.352;2023-12-04T05:05:22;-13.40;99.90
25170;DHT22;13129;48.012;10.352;2023-12-04T05:07:48;-13.30;99.90
25170;DHT22;13129;48.012;10.352;2023-12-04T05:10:15;-13.30;99.90
25170;DHT22;13129;48.012;10.352;2023-12-04T05:12:41;-13.30;99.90
25170;DHT22;13129;48.012;10.352;2023-12-04T05:15:07;-13.20;99.90
25170;DHT22;13129;48.012;10.352;2023-12-04T05:17:32;-13.20;99.90
25170;DHT22;13129;48.012;10.352;2023-12-04T05:19:58;-13.20;99.90
25170;DHT22;13129;48.012;10.352;2023-12-04T05:22:24;-13.20;99.90
25170;DHT22;13129;48.012;10.352;2023-12-04T05:24:49;-13.20;99.90
25170;DHT22;13129;48.012;10.352;2023-12-04T05:27:15;-13.10;99.90
25170;DHT22;13129;48.012;10.352;2023-12-04T05:29:41;-13.10;99.90
25170;DHT22;13129;48.012;10.352;2023-12-04T05:32:09;-13.00;99.90
25170;DHT22;13129;48.012;10.352;2023-12-04T05:34:35;-12.90;99.90
25170;DHT22;13129;48.012;10.352;2023-12-04T05:37:01;-12.90;99.90
25170;DHT22;13129;48.012;10.352;2023-12-04T05:39:26;-12.90;99.90
25170;DHT22;13129;48.012;10.352;2023-12-04T05:41:52;-12.90;99.90
25170;DHT22;13129;48.012;10.352;2023-12-04T05:44:18;-12.90;99.90
25170;DHT22;13129;48.012;10.352;2023-12-04T05:46:43;-12.90;99.90
25170;DHT22;13129;48.012;10.352;2023-12-04T05:49:09;-12.90;99.90
25170;DHT22;13129;48.012;10.352;2023-12-04T05:51:35;-12.70;99.90
25170;DHT22;13129;48.012;10.352;2023-12-04T05:54:01;-12.70;99.90
25170;DHT22;13129;48.012;10.352;2023-12-04T05:56:26;-12.40;99.90
25170;DHT22;13129;48.012;10.352;2023-12-04T05:58:52;-12.30;99.90
25170;DHT22;13129;48.012;10.352;2023-12-04T06:01:18;-12.10;99.90
25170;DHT22;13129;48.012;10.352;2023-12-04T06:03:44;-12.10;99.90
25170;DHT22;13129;48.012;10.352;2023-12-04T06:06:10;-12.10;99.90
25170;DHT22;13129;48.012;10.352;2023-12-04T06:08:35;-12.00;99.90
25170;DHT22;13129;48.012;10.352;2023-12-04T06:11:01;-12.00;99.90
25170;DHT22;13129;48.012;10.352;2023-12-04T06:13:27;-12.00;99.90
25170;DHT22;13129;48.012;10.352;2023-12-04T06:15:52;-12.00;99.90
25170;DHT22;13129;48.012;10.352;2023-12-04T06:18:18;-12.00;99.90
25170;DHT22;13129;48.012;10.352;2023-12-04T06:20:46;-12.10;99.90
25170;DHT22;13129;48.012;10.352;2023-12-04T06:23:11;-12.10;99.90
25170;DHT22;13129;48.012;10.352;2023-12-04T06:25:37;-12.10;99.90
25170;DHT22;13129;48.012;10.352;2023-12-04T06:28:04;-12.10;99.90
25170;DHT22;13129;48.012;10.352;2023-12-04T06:30:30;-12.10;99.90
25170;DHT22;13129;48.012;10.352;2023-12-04T06:32:56;-12.10;99.90
25170;DHT22;13129;48.012;10.352;2023-12-04T06:35:22;-12.30;99.90
25170;DHT22;13129;48.012;10.352;2023-12-04T06:37:53;-12.30;99.90
25170;DHT22;13129;48.012;10.352;2023-12-04T06:40:20;-12.40;99.90
25170;DHT22;13129;48.012;10.352;2023-12-04T06:42:46;-12.40;99.90
25170;DHT22;13129;48.012;10.352;2023-12-04T06:45:12;-12.30;99.90
25170;DHT22;13129;48.012;10.352;2023-12-04T06:47:40;-12.30;99.90
25170;DHT22;13129;48.012;10.352;2023-12-04T06:50:06;-12.40;99.90
25170;DHT22;13129;48.012;10.352;2023-12-04T06:52:32;-12.30;99.90
25170;DHT22;13129;48.012;10.352;2023-12-04T06:54:58;-12.30;99.90
25170;DHT22;13129;48.012;10.352;2023-12-04T06:57:23;-12.20;99.90
25170;DHT22;13129;48.012;10.352;2023-12-04T06:59:49;-12.20;99.90
25170;DHT22;13129;48.012;10.352;2023-12-04T07:02:15;-12.10;99.90
25170;DHT22;13129;48.012;10.352;2023-12-04T07:04:40;-12.00;99.90
25170;DHT22;13129;48.012;10.352;2023-12-04T07:07:09;-11.90;99.90
25170;DHT22;13129;48.012;10.352;2023-12-04T07:09:37;-11.70;99.90
25170;DHT22;13129;48.012;10.352;2023-12-04T07:12:09;-11.70;99.90
25170;DHT22;13129;48.012;10.352;2023-12-04T07:14:44;-11.50;99.90
25170;DHT22;13129;48.012;10.352;2023-12-04T07:17:10;-11.50;99.90
25170;DHT22;13129;48.012;10.352;2023-12-04T07:19:36;-11.30;99.90
25170;DHT22;13129;48.012;10.352;2023-12-04T07:22:03;-11.20;99.90
25170;DHT22;13129;48.012;10.352;2023-12-04T07:24:29;-11.00;99.90
25170;DHT22;13129;48.012;10.352;2023-12-04T07:26:54;-10.90;99.90
25170;DHT22;13129;48.012;10.352;2023-12-04T07:29:20;-10.80;99.90
25170;DHT22;13129;48.012;10.352;2023-12-04T07:31:46;-10.80;99.90
25170;DHT22;13129;48.012;10.352;2023-12-04T07:34:11;-10.70;99.90
25170;DHT22;13129;48.012;10.352;2023-12-04T07:36:37;-10.50;99.90
25170;DHT22;13129;48.012;10.352;2023-12-04T07:39:03;-10.30;99.90
25170;DHT22;13129;48.012;10.352;2023-12-04T07:41:32;-10.10;99.90
25170;DHT22;13129;48.012;10.352;2023-12-04T07:43:57;-10.00;99.90
25170;DHT22;13129;48.012;10.352;2023-12-04T07:46:23;-9.90;99.90
25170;DHT22;13129;48.012;10.352;2023-12-04T07:48:49;-9.90;99.90
25170;DHT22;13129;48.012;10.352;2023-12-04T07:51:14;-9.70;99.90
25170;DHT22;13129;48.012;10.352;2023-12-04T07:53:40;-9.70;99.90
25170;DHT22;13129;48.012;10.352;2023-12-04T07:56:06;-9.50;99.90
25170;DHT22;13129;48.012;10.352;2023-12-04T07:58:32;-9.40;99.90
25170;DHT22;13129;48.012;10.352;2023-12-04T08:00:58;-9.40;99.90
25170;DHT22;13129;48.012;10.352;2023-12-04T08:03:24;-9.20;99.90
25170;DHT22;13129;48.012;10.352;2023-12-04T08:05:51;-9.20;99.90
25170;DHT22;13129;48.012;10.352;2023-12-04T08:08:17;-9.10;99.90
25170;DHT22;13129;48.012;10.352;2023-12-04T08:10:42;-9.00;99.90
25170;DHT22;13129;48.012;10.352;2023-12-04T08:13:08;-8.90;99.90
25170;DHT22;13129;48.012;10.352;2023-12-04T08:15:34;-8.80;99.90
25170;DHT22;13129;48.012;10.352;2023-12-04T08:17:59;-8.70;99.90
25170;DHT22;13129;48.012;10.352;2023-12-04T08:20:26;-8.60;99.90
25170;DHT22;13129;48.012;10.352;2023-12-04T08:22:51;-8.50;99.90
25170;DHT22;13129;48.012;10.352;2023-12-04T08:25:17;-8.30;99.90
25170;DHT22;13129;48.012;10.352;2023-12-04T08:27:48;-8.20;99.90
25170;DHT22;13129;48.012;10.352;2023-12-04T08:30:18;-8.10;99.90
25170;DHT22;13129;48.012;10.352;2023-12-04T08:32:44;-8.00;99.90
25170;DHT22;13129;48.012;10.352;2023-12-04T08:35:09;-7.80;99.90
25170;DHT22;13129;48.012;10.352;2023-12-04T08:37:35;-7.80;99.90
25170;DHT22;13129;48.012;10.352;2023-12-04T08:40:01;-7.70;99.90
25170;DHT22;13129;48.012;10.352;2023-12-04T08:42:31;-7.60;99.90
25170;DHT22;13129;48.012;10.352;2023-12-04T08:44:57;-7.50;99.90
25170;DHT22;13129;48.012;10.352;2023-12-04T08:47:25;-7.50;99.90
25170;DHT22;13129;48.012;10.352;2023-12-04T08:49:53;-7.50;99.90
25170;DHT22;13129;48.012;10.352;2023-12-04T08:52:19;-7.40;99.90
25170;DHT22;13129;48.012;10.352;2023-12-04T08:54:45;-7.40;99.90
25170;DHT22;13129;48.012;10.352;2023-12-04T08:57:10;-7.40;99.90
25170;DHT22;13129;48.012;10.352;2023-12-04T08:59:41;-7.20;99.90
25170;DHT22;13129;48.012;10.352;2023-12-04T09:02:07;-7.00;99.90
25170;DHT22;13129;48.012;10.352;2023-12-04T09:04:33;-7.00;99.90
25170;DHT22;13129;48.012;10.352;2023-12-04T09:06:59;-7.00;99.90
25170;DHT22;13129;48.012;10.352;2023-12-04T09:09:25;-6.90;99.90
25170;DHT22;13129;48.012;10.352;2023-12-04T09:11:53;-6.90;99.90
25170;DHT22;13129;48.012;10.352;2023-12-04T09:14:19;-6.70;99.90
25170;DHT22;13129;48.012;10.352;2023-12-04T09:16:44;-6.70;99.90
25170;DHT22;13129;48.012;10.352;2023-12-04T09:19:10;-6.60;99.90
25170;DHT22;13129;48.012;10.352;2023-12-04T09:21:36;-6.30;99.90
25170;DHT22;13129;48.012;10.352;2023-12-04T09:24:01;-6.20;99.90
25170;DHT22;13129;48.012;10.352;2023-12-04T09:26:27;-6.10;99.90
25170;DHT22;13129;48.012;10.352;2023-12-04T09:28:53;-6.00;99.90
25170;DHT22;13129;48.012;10.352;2023-12-04T09:31:18;-5.90;99.90
25170;DHT22;13129;48.012;10.352;2023-12-04T09:33:45;-5.80;99.90
25170;DHT22;13129;48.012;10.352;2023-12-04T09:36:10;-5.80;99.90
25170;DHT22;13129;48.012;10.352;2023-12-04T09:38:36;-5.80;99.90
25170;DHT22;13129;48.012;10.352;2023-12-04T09:41:02;-5.80;99.90
25170;DHT22;13129;48.012;10.352;2023-12-04T09:43:31;-5.80;99.90
25170;DHT22;13129;48.012;10.352;2023-12-04T09:45:57;-5.80;99.90
25170;DHT22;13129;48.012;10.352;2023-12-04T09:48:27;-5.80;99.90
25170;DHT22;13129;48.012;10.352;2023-12-04T09:50:55;-5.80;99.90
25170;DHT22;13129;48.012;10.352;2023-12-04T09:53:21;-5.90;99.90
25170;DHT22;13129;48.012;10.352;2023-12-04T09:55:51;-5.90;99.90
25170;DHT22;13129;48.012;10.352;2023-12-04T09:58:19;-5.80;99.90
25170;DHT22;13129;48.012;10.352;2023-12-04T10:00:46;-5.80;99.90
25170;DHT22;13129;48.012;10.352;2023-12-04T10:03:12;-5.60;99.90
25170;DHT22;13129;48.012;10.352;2023-12-04T10:05:43;-5.50;99.90
25170;DHT22;13129;48.012;10.352;2023-12-04T10:08:09;-5.40;99.90
25170;DHT22;13129;48.012;10.352;2023-12-04T10:10:35;-5.20;99.90
25170;DHT22;13129;48.012;10.352;2023-12-04T10:13:01;-5.10;99.90
25170;DHT22;13129;48.012;10.352;2023-12-04T10:15:26;-4.90;99.90
25170;DHT22;13129;48.012;10.352;2023-12-04T10:17:52;-4.70;99.90
25170;DHT22;13129;48.012;10.352;2023-12-04T10:20:19;-4.40;99.90
25170;DHT22;13129;48.012;10.352;2023-12-04T10:22:54;-4.20;99.90
25170;DHT22;13129;48.012;10.352;2023-12-04T10:25:20;-4.00;99.90
25170;DHT22;13129;48.012;10.352;2023-12-04T10:27:46;-3.90;99.90
25170;DHT22;13129;48.012;10.352;2023-12-04T10:30:29;-3.80;99.90
25170;DHT22;13129;48.012;10.352;2023-12-04T10:33:07;-3.70;99.90
25170;DHT22;13129;48.012;10.352;2023-12-04T10:35:35;-3.80;99.90
25170;DHT22;13129;48.012;10.352;2023-12-04T10:38:07;-3.90;99.90
25170;DHT22;13129;48.012;10.352;2023-12-04T10:40:36;-4.10;99.90
25170;DHT22;13129;48.012;10.352;2023-12-04T10:45:35;-4.00;99.90
25170;DHT22;13129;48.012;10.352;2023-12-04T10:48:02;-4.00;99.90
25170;DHT22;13129;48.012;10.352;2023-12-04T10:50:35;-4.00;99.90
25170;DHT22;13129;48.012;10.352;2023-12-04T10:53:04;-3.90;99.90
25170;DHT22;13129;48.012;10.352;2023-12-04T11:02:26;-3.80;99.90
25170;DHT22;13129;48.012;10.352;2023-12-04T11:04:58;-3.80;99.90
25170;DHT22;13129;48.012;10.352;2023-12-04T11:07:29;-4.00;99.90
25170;DHT22;13129;48.012;10.352;2023-12-04T11:09:56;-3.90;99.90
25170;DHT22;13129;48.012;10.352;2023-12-04T11:12:25;-3.80;99.90
25170;DHT22;13129;48.012;10.352;2023-12-04T11:14:56;-3.60;99.90
25170;DHT22;13129;48.012;10.352;2023-12-04T11:17:25;-3.60;99.90
25170;DHT22;13129;48.012;10.352;2023-12-04T11:19:57;-3.50;99.90
25170;DHT22;13129;48.012;10.352;2023-12-04T11:22:25;-3.50;99.90
25170;DHT22;13129;48.012;10.352;2023-12-04T11:24:51;-3.30;99.90
25170;DHT22;13129;48.012;10.352;2023-12-04T11:27:18;-3.20;99.90
25170;DHT22;13129;48.012;10.352;2023-12-04T11:29:45;-3.10;99.90
25170;DHT22;13129;48.012;10.352;2023-12-04T11:32:15;-3.20;99.90
25170;DHT22;13129;48.012;10.352;2023-12-04T11:34:51;-3.10;99.90
25170;DHT22;13129;48.012;10.352;2023-12-04T11:37:19;-3.20;99.90
25170;DHT22;13129;48.012;10.352;2023-12-04T11:39:46;-3.10;99.90
25170;DHT22;13129;48.012;10.352;2023-12-04T11:42:13;-3.00;99.90
25170;DHT22;13129;48.012;10.352;2023-12-04T11:44:44;-3.00;99.90
25170;DHT22;13129;48.012;10.352;2023-12-04T11:47:11;-3.00;99.90
25170;DHT22;13129;48.012;10.352;2023-12-04T11:49:36;-2.90;99.90
25170;DHT22;13129;48.012;10.352;2023-12-04T11:52:06;-2.60;99.90
25170;DHT22;13129;48.012;10.352;2023-12-04T11:55:08;-2.20;99.90
25170;DHT22;13129;48.012;10.352;2023-12-04T11:57:35;-1.90;99.90
25170;DHT22;13129;48.012;10.352;2023-12-04T12:02:40;-1.10;99.90
25170;DHT22;13129;48.012;10.352;2023-12-04T12:05:06;-0.90;99.90
25170;DHT22;13129;48.012;10.352;2023-12-04T12:07:35;-0.70;99.90
25170;DHT22;13129;48.012;10.352;2023-12-04T12:10:01;-0.90;99.90
25170;DHT22;13129;48.012;10.352;2023-12-04T12:12:28;-0.90;99.90
25170;DHT22;13129;48.012;10.352;2023-12-04T12:14:53;-1.00;99.90
25170;DHT22;13129;48.012;10.352;2023-12-04T12:17:19;-1.00;99.90
25170;DHT22;13129;48.012;10.352;2023-12-04T12:19:45;-1.00;99.90
25170;DHT22;13129;48.012;10.352;2023-12-04T12:22:11;-0.90;99.90
25170;DHT22;13129;48.012;10.352;2023-12-04T12:24:37;-1.00;99.90
25170;DHT22;13129;48.012;10.352;2023-12-04T12:27:03;-1.20;99.90
25170;DHT22;13129;48.012;10.352;2023-12-04T12:29:29;-1.30;99.90
25170;DHT22;13129;48.012;10.352;2023-12-04T12:31:55;-1.30;99.90
25170;DHT22;13129;48.012;10.352;2023-12-04T12:34:20;-1.30;99.90
25170;DHT22;13129;48.012;10.352;2023-12-04T12:36:46;-1.20;99.90
25170;DHT22;13129;48.012;10.352;2023-12-04T12:39:13;-1.10;99.90
25170;DHT22;13129;48.012;10.352;2023-12-04T12:41:47;-1.00;99.90
25170;DHT22;13129;48.012;10.352;2023-12-04T12:44:13;-0.90;99.90
25170;DHT22;13129;48.012;10.352;2023-12-04T12:46:40;-0.90;99.90
25170;DHT22;13129;48.012;10.352;2023-12-04T12:49:07;-0.90;99.90
25170;DHT22;13129;48.012;10.352;2023-12-04T12:51:33;-0.90;99.90
25170;DHT22;13129;48.012;10.352;2023-12-04T12:53:58;-1.00;99.90
25170;DHT22;13129;48.012;10.352;2023-12-04T12:56:27;-1.10;99.90
25170;DHT22;13129;48.012;10.352;2023-12-04T12:58:53;-1.10;99.90
25170;DHT22;13129;48.012;10.352;2023-12-04T13:01:23;-1.20;99.90
25170;DHT22;13129;48.012;10.352;2023-12-04T13:03:50;-1.10;99.90
25170;DHT22;13129;48.012;10.352;2023-12-04T13:06:16;-1.30;99.90
25170;DHT22;13129;48.012;10.352;2023-12-04T13:08:43;-1.20;99.90
25170;DHT22;13129;48.012;10.352;2023-12-04T13:11:09;-1.30;99.90
25170;DHT22;13129;48.012;10.352;2023-12-04T13:13:34;-1.40;99.90
25170;DHT22;13129;48.012;10.352;2023-12-04T13:16:00;-1.60;99.90
25170;DHT22;13129;48.012;10.352;2023-12-04T13:18:25;-1.70;99.90
25170;DHT22;13129;48.012;10.352;2023-12-04T13:20:51;-1.70;99.90
25170;DHT22;13129;48.012;10.352;2023-12-04T13:23:17;-1.70;99.90
25170;DHT22;13129;48.012;10.352;2023-12-04T13:25:42;-1.70;99.90
25170;DHT22;13129;48.012;10.352;2023-12-04T13:28:09;-1.70;99.90
25170;DHT22;13129;48.012;10.352;2023-12-04T13:30:34;-1.70;99.90
25170;DHT22;13129;48.012;10.352;2023-12-04T13:33:00;-1.70;99.90
25170;DHT22;13129;48.012;10.352;2023-12-04T13:35:26;-1.90;99.90
25170;DHT22;13129;48.012;10.352;2023-12-04T13:37:52;-1.80;99.90
25170;DHT22;13129;48.012;10.352;2023-12-04T13:40:21;-1.80;99.90
25170;DHT22;13129;48.012;10.352;2023-12-04T13:42:46;-1.70;99.90
25170;DHT22;13129;48.012;10.352;2023-12-04T13:45:30;-1.70;99.90
25170;DHT22;13129;48.012;10.352;2023-12-04T13:47:57;-1.80;99.90
25170;DHT22;13129;48.012;10.352;2023-12-04T13:50:23;-1.70;99.90
25170;DHT22;13129;48.012;10.352;2023-12-04T13:52:49;-1.80;99.90
25170;DHT22;13129;48.012;10.352;2023-12-04T13:55:22;-1.80;99.90
25170;DHT22;13129;48.012;10.352;2023-12-04T13:58:02;-1.80;99.90
25170;DHT22;13129;48.012;10.352;2023-12-04T14:00:28;-1.70;99.90
25170;DHT22;13129;48.012;10.352;2023-12-04T14:02:54;-1.70;99.90
25170;DHT22;13129;48.012;10.352;2023-12-04T14:05:29;-1.80;99.90
25170;DHT22;13129;48.012;10.352;2023-12-04T14:07:55;-1.70;99.90
25170;DHT22;13129;48.012;10.352;2023-12-04T14:10:20;-1.90;99.90
25170;DHT22;13129;48.012;10.352;2023-12-04T14:12:46;-2.00;99.90
25170;DHT22;13129;48.012;10.352;2023-12-04T14:15:12;-2.10;99.90
25170;DHT22;13129;48.012;10.352;2023-12-04T14:17:39;-2.20;99.90
25170;DHT22;13129;48.012;10.352;2023-12-04T14:20:06;-2.30;99.90
25170;DHT22;13129;48.012;10.352;2023-12-04T14:22:40;-2.40;99.90
25170;DHT22;13129;48.012;10.352;2023-12-04T14:25:06;-2.50;99.90
25170;DHT22;13129;48.012;10.352;2023-12-04T14:27:32;-2.50;99.90
25170;DHT22;13129;48.012;10.352;2023-12-04T14:29:58;-2.60;99.90
25170;DHT22;13129;48.012;10.352;2023-12-04T14:32:23;-2.60;99.90
25170;DHT22;13129;48.012;10.352;2023-12-04T14:34:49;-2.50;99.90
25170;DHT22;13129;48.012;10.352;2023-12-04T14:37:14;-2.60;99.90
25170;DHT22;13129;48.012;10.352;2023-12-04T14:39:41;-2.60;99.90
25170;DHT22;13129;48.012;10.352;2023-12-04T14:42:06;-2.50;99.90
25170;DHT22;13129;48.012;10.352;2023-12-04T14:44:32;-2.70;99.90
25170;DHT22;13129;48.012;10.352;2023-12-04T14:46:58;-2.70;99.90
25170;DHT22;13129;48.012;10.352;2023-12-04T14:49:25;-2.90;99.90
25170;DHT22;13129;48.012;10.352;2023-12-04T14:51:50;-2.90;99.90
25170;DHT22;13129;48.012;10.352;2023-12-04T14:54:17;-2.90;99.90
25170;DHT22;13129;48.012;10.352;2023-12-04T14:56:47;-3.00;99.90
25170;DHT22;13129;48.012;10.352;2023-12-04T14:59:31;-3.10;99.90
25170;DHT22;13129;48.012;10.352;2023-12-04T15:02:15;-3.20;99.90
25170;DHT22;13129;48.012;10.352;2023-12-04T15:04:59;-3.20;99.90
25170;DHT22;13129;48.012;10.352;2023-12-04T15:07:42;-3.30;99.90
25170;DHT22;13129;48.012;10.352;2023-12-04T15:10:27;-3.30;99.90
25170;DHT22;13129;48.012;10.352;2023-12-04T15:13:07;-3.20;99.90
25170;DHT22;13129;48.012;10.352;2023-12-04T15:15:53;-3.30;99.90
25170;DHT22;13129;48.012;10.352;2023-12-04T15:18:24;-3.30;99.90
25170;DHT22;13129;48.012;10.352;2023-12-04T15:21:07;-3.30;99.90
25170;DHT22;13129;48.012;10.352;2023-12-04T15:23:33;-3.30;99.90
25170;DHT22;13129;48.012;10.352;2023-12-04T15:25:59;-3.30;99.90
25170;DHT22;13129;48.012;10.352;2023-12-04T15:28:25;-3.20;99.90
25170;DHT22;13129;48.012;10.352;2023-12-04T15:30:50;-3.30;99.90
25170;DHT22;13129;48.012;10.352;2023-12-04T15:33:16;-3.30;99.90
25170;DHT22;13129;48.012;10.352;2023-12-04T15:35:42;-3.20;99.90
25170;DHT22;13129;48.012;10.352;2023-12-04T15:38:08;-3.20;99.90
25170;DHT22;13129;48.012;10.352;2023-12-04T15:40:34;-3.20;99.90
25170;DHT22;13129;48.012;10.352;2023-12-04T15:43:25;-3.20;99.90
25170;DHT22;13129;48.012;10.352;2023-12-04T15:45:51;-3.20;99.90
25170;DHT22;13129;48.012;10.352;2023-12-04T15:48:17;-3.10;99.90
25170;DHT22;13129;48.012;10.352;2023-12-04T15:50:42;-3.20;99.90
25170;DHT22;13129;48.012;10.352;2023-12-04T15:53:08;-3.10;99.90
25170;DHT22;13129;48.012;10.352;2023-12-04T15:55:34;-3.00;99.90
25170;DHT22;13129;48.012;10.352;2023-12-04T15:58:00;-3.10;99.90
25170;DHT22;13129;48.012;10.352;2023-12-04T16:00:26;-3.10;99.90
25170;DHT22;13129;48.012;10.352;2023-12-04T16:02:52;-3.00;99.90
25170;DHT22;13129;48.012;10.352;2023-12-04T16:05:18;-3.10;99.90
25170;DHT22;13129;48.012;10.352;2023-12-04T16:07:45;-3.00;99.90
25170;DHT22;13129;48.012;10.352;2023-12-04T16:10:11;-3.00;99.90
25170;DHT22;13129;48.012;10.352;2023-12-04T16:12:37;-3.00;99.90
25170;DHT22;13129;48.012;10.352;2023-12-04T16:15:07;-3.00;99.90
25170;DHT22;13129;48.012;10.352;2023-12-04T16:17:37;-2.90;99.90
25170;DHT22;13129;48.012;10.352;2023-12-04T16:20:04;-2.90;99.90
25170;DHT22;13129;48.012;10.352;2023-12-04T16:22:43;-2.90;99.90
25170;DHT22;13129;48.012;10.352;2023-12-04T16:25:09;-2.90;99.90
25170;DHT22;13129;48.012;10.352;2023-12-04T16:27:36;-2.80;99.90
25170;DHT22;13129;48.012;10.352;2023-12-04T16:30:04;-2.80;99.90
25170;DHT22;13129;48.012;10.352;2023-12-04T16:32:30;-2.80;99.90
25170;DHT22;13129;48.012;10.352;2023-12-04T16:34:56;-2.80;99.90
25170;DHT22;13129;48.012;10.352;2023-12-04T16:37:22;-2.80;99.90
25170;DHT22;13129;48.012;10.352;2023-12-04T16:39:47;-2.80;99.90
25170;DHT22;13129;48.012;10.352;2023-12-04T16:42:13;-2.80;99.90
25170;DHT22;13129;48.012;10.352;2023-12-04T16:44:39;-2.80;99.90
25170;DHT22;13129;48.012;10.352;2023-12-04T16:47:04;-2.80;99.90
25170;DHT22;13129;48.012;10.352;2023-12-04T16:49:30;-2.90;99.90
25170;DHT22;13129;48.012;10.352;2023-12-04T16:51:56;-2.90;99.90
25170;DHT22;13129;48.012;10.352;2023-12-04T16:54:21;-2.70;99.90
25170;DHT22;13129;48.012;10.352;2023-12-04T16:56:47;-2.90;99.90
25170;DHT22;13129;48.012;10.352;2023-12-04T16:59:15;-3.00;99.90
25170;DHT22;13129;48.012;10.352;2023-12-04T17:01:41;-3.00;99.90
25170;DHT22;13129;48.012;10.352;2023-12-04T17:04:06;-3.00;99.90
25170;DHT22;13129;48.012;10.352;2023-12-04T17:06:33;-3.00;99.90
25170;DHT22;13129;48.012;10.352;2023-12-04T17:08:58;-3.10;99.90
25170;DHT22;13129;48.012;10.352;2023-12-04T17:11:24;-3.10;99.90
25170;DHT22;13129;48.012;10.352;2023-12-04T17:13:51;-3.00;99.90
25170;DHT22;13129;48.012;10.352;2023-12-04T17:16:16;-3.00;99.90
25170;DHT22;13129;48.012;10.352;2023-12-04T17:18:42;-3.00;99.90
25170;DHT22;13129;48.012;10.352;2023-12-04T17:21:09;-3.00;99.90
25170;DHT22;13129;48.012;10.352;2023-12-04T17:23:34;-3.00;99.90
25170;DHT22;13129;48.012;10.352;2023-12-04T17:26:01;-3.10;99.90
25170;DHT22;13129;48.012;10.352;2023-12-04T17:28:28;-3.00;99.90
25170;DHT22;13129;48.012;10.352;2023-12-04T17:30:54;-3.10;99.90
25170;DHT22;13129;48.012;10.352;2023-12-04T17:33:19;-3.00;99.90
25170;DHT22;13129;48.012;10.352;2023-12-04T17:35:45;-2.90;99.90
25170;DHT22;13129;48.012;10.352;2023-12-04T17:38:11;-2.90;99.90
25170;DHT22;13129;48.012;10.352;2023-12-04T17:40:36;-2.80;99.90
25170;DHT22;13129;48.012;10.352;2023-12-04T17:43:02;-2.80;99.90
25170;DHT22;13129;48.012;10.352;2023-12-04T17:45:27;-2.80;99.90
25170;DHT22;13129;48.012;10.352;2023-12-04T17:47:58;-2.70;99.90
25170;DHT22;13129;48.012;10.352;2023-12-04T17:50:23;-2.70;99.90
25170;DHT22;13129;48.012;10.352;2023-12-04T17:52:49;-2.70;99.90
25170;DHT22;13129;48.012;10.352;2023-12-04T17:55:15;-2.70;99.90
25170;DHT22;13129;48.012;10.352;2023-12-04T17:57:41;-2.60;99.90
25170;DHT22;13129;48.012;10.352;2023-12-04T18:00:08;-2.60;99.90
25170;DHT22;13129;48.012;10.352;2023-12-04T18:02:41;-2.60;99.90
25170;DHT22;13129;48.012;10.352;2023-12-04T18:05:08;-2.50;99.90
25170;DHT22;13129;48.012;10.352;2023-12-04T18:07:36;-2.50;99.90
25170;DHT22;13129;48.012;10.352;2023-12-04T18:10:02;-2.50;99.90
25170;DHT22;13129;48.012;10.352;2023-12-04T18:12:28;-2.50;99.90
25170;DHT22;13129;48.012;10.352;2023-12-04T18:14:53;-2.50;99.90
25170;DHT22;13129;48.012;10.352;2023-12-04T18:17:19;-2.40;99.90
25170;DHT22;13129;48.012;10.352;2023-12-04T18:19:45;-2.40;99.90
25170;DHT22;13129;48.012;10.352;2023-12-04T18:22:11;-2.40;99.90
25170;DHT22;13129;48.012;10.352;2023-12-04T18:24:38;-2.40;99.90
25170;DHT22;13129;48.012;10.352;2023-12-04T18:27:03;-2.40;99.90
25170;DHT22;13129;48.012;10.352;2023-12-04T18:29:29;-2.40;99.90
25170;DHT22;13129;48.012;10.352;2023-12-04T18:31:57;-2.40;99.90
25170;DHT22;13129;48.012;10.352;2023-12-04T18:34:23;-2.40;99.90
25170;DHT22;13129;48.012;10.352;2023-12-04T18:36:52;-2.30;99.90
25170;DHT22;13129;48.012;10.352;2023-12-04T18:39:22;-2.30;99.90
25170;DHT22;13129;48.012;10.352;2023-12-04T18:41:48;-2.30;99.90
25170;DHT22;13129;48.012;10.352;2023-12-04T18:44:14;-2.20;99.90
25170;DHT22;13129;48.012;10.352;2023-12-04T18:46:40;-2.20;99.90
25170;DHT22;13129;48.012;10.352;2023-12-04T18:49:08;-2.20;99.90
25170;DHT22;13129;48.012;10.352;2023-12-04T18:51:35;-2.10;99.90
25170;DHT22;13129;48.012;10.352;2023-12-04T18:54:02;-2.10;99.90
25170;DHT22;13129;48.012;10.352;2023-12-04T18:56:27;-2.10;99.90
25170;DHT22;13129;48.012;10.352;2023-12-04T18:58:53;-2.00;99.90
25170;DHT22;13129;48.012;10.352;2023-12-04T19:01:18;-2.00;99.90
25170;DHT22;13129;48.012;10.352;2023-12-04T19:03:44;-2.00;99.90
25170;DHT22;13129;48.012;10.352;2023-12-04T19:06:10;-2.00;99.90
25170;DHT22;13129;48.012;10.352;2023-12-04T19:08:36;-1.90;99.90
25170;DHT22;13129;48.012;10.352;2023-12-04T19:11:02;-1.90;99.90
25170;DHT22;13129;48.012;10.352;2023-12-04T19:13:28;-1.90;99.90
25170;DHT22;13129;48.012;10.352;2023-12-04T19:15:54;-1.90;99.90
25170;DHT22;13129;48.012;10.352;2023-12-04T19:18:20;-1.90;99.90
25170;DHT22;13129;48.012;10.352;2023-12-04T19:20:46;-1.80;99.90
25170;DHT22;13129;48.012;10.352;2023-12-04T19:23:11;-1.60;99.90
25170;DHT22;13129;48.012;10.352;2023-12-04T19:25:37;-1.70;99.90
25170;DHT22;13129;48.012;10.352;2023-12-04T19:28:04;-1.50;99.90
25170;DHT22;13129;48.012;10.352;2023-12-04T19:30:30;-1.60;99.90
25170;DHT22;13129;48.012;10.352;2023-12-04T19:32:56;-1.50;99.90
25170;DHT22;13129;48.012;10.352;2023-12-04T19:35:21;-1.60;99.90
25170;DHT22;13129;48.012;10.352;2023-12-04T19:37:47;-1.60;99.90
25170;DHT22;13129;48.012;10.352;2023-12-04T19:40:13;-1.60;99.90
25170;DHT22;13129;48.012;10.352;2023-12-04T19:42:39;-1.60;99.90
25170;DHT22;13129;48.012;10.352;2023-12-04T19:45:05;-1.60;99.90
25170;DHT22;13129;48.012;10.352;2023-12-04T19:47:34;-1.60;99.90
25170;DHT22;13129;48.012;10.352;2023-12-04T19:50:00;-1.60;99.90
25170;DHT22;13129;48.012;10.352;2023-12-04T19:52:25;-1.70;99.90
25170;DHT22;13129;48.012;10.352;2023-12-04T19:54:51;-1.60;99.90